sensor_id;sensor_type;location;lat;lon;timestamp;pressure;altitude;pressure_sealevel;temperature;humidity
78509;BME280;67802;50.846;7.958;2023-12-29T00:01:56;97417.34;;;18.82;38.24
78509;BME280;67802;50.846;7.958;2023-12-29T00:04:21;97409.44;;;18.82;38.10
78509;BME280;67802;50.846;7.958;2023-12-29T00:06:46;97404.03;;;18.84;38.10
78509;BME280;67802;50.846;7.958;2023-12-29T00:09:11;97404.88;;;18.84;37.91
78509;BME280;67802;50.846;7.958;2023-12-29T00:11:38;97405.84;;;18.83;38.15
78509;BME280;67802;50.846;7.958;2023-12-29T00:14:03;97404.88;;;18.84;38.08
78509;BME280;67802;50.846;7.958;2023-12-29T00:16:29;97399.63;;;18.84;38.09
78509;BME280;67802;50.846;7.958;2023-12-29T00:18:54;97394.34;;;18.84;38.00
78509;BME280;67802;50.846;7.958;2023-12-29T00:21:19;97396.03;;;18.86;38.11
78509;BME280;67802;50.846;7.958;2023-12-29T00:23:44;97407.38;;;18.86;37.97
78509;BME280;67802;50.846;7.958;2023-12-29T00:26:10;97402.25;;;18.84;37.83
78509;BME280;67802;50.846;7.958;2023-12-29T00:28:35;97408.47;;;18.83;38.09
78509;BME280;67802;50.846;7.958;2023-12-29T00:31:05;97404.03;;;18.84;38.02
78509;BME280;67802;50.846;7.958;2023-12-29T00:33:30;97404.16;;;18.82;37.80
78509;BME280;67802;50.846;7.958;2023-12-29T00:35:57;97419.00;;;18.83;38.04
78509;BME280;67802;50.846;7.958;2023-12-29T00:38:22;97415.66;;;18.81;38.11
78509;BME280;67802;50.846;7.958;2023-12-29T00:40:48;97420.94;;;18.81;38.10
78509;BME280;67802;50.846;7.958;2023-12-29T00:43:13;97417.59;;;18.79;38.10
78509;BME280;67802;50.846;7.958;2023-12-29T00:45:39;97407.06;;;18.79;38.02
78509;BME280;67802;50.846;7.958;2023-12-29T00:48:04;97394.88;;;18.78;38.14
78509;BME280;67802;50.846;7.958;2023-12-29T00:50:30;97394.88;;;18.78;37.94
78509;BME280;67802;50.846;7.958;2023-12-29T00:52:55;97385.44;;;18.76;37.87
78509;BME280;67802;50.846;7.958;2023-12-29T00:55:20;97381.16;;;18.75;38.05
78509;BME280;67802;50.846;7.958;2023-12-29T00:57:46;97377.66;;;18.74;38.15
78509;BME280;67802;50.846;7.958;2023-12-29T01:00:12;97376.00;;;18.73;37.91
78509;BME280;67802;50.846;7.958;2023-12-29T01:02:38;97371.69;;;18.72;37.98
78509;BME280;67802;50.846;7.958;2023-12-29T01:05:04;97362.13;;;18.71;37.97
78509;BME280;67802;50.846;7.958;2023-12-29T01:07:29;97350.09;;;18.68;37.96
78509;BME280;67802;50.846;7.958;2023-12-29T01:09:55;97361.56;;;18.67;37.99
78509;BME280;67802;50.846;7.958;2023-12-29T01:12:20;97365.97;;;18.67;37.86
78509;BME280;67802;50.846;7.958;2023-12-29T01:14:45;97351.88;;;18.68;38.04
78509;BME280;67802;50.846;7.958;2023-12-29T01:17:10;97342.31;;;18.67;38.06
78509;BME280;67802;50.846;7.958;2023-12-29T01:19:36;97348.53;;;18.66;38.00
78509;BME280;67802;50.846;7.958;2023-12-29T01:22:01;97344.94;;;18.67;37.95
78509;BME280;67802;50.846;7.958;2023-12-29T01:24:26;97340.63;;;18.66;38.02
78509;BME280;67802;50.846;7.958;2023-12-29T01:26:52;97349.50;;;18.65;38.03
78509;BME280;67802;50.846;7.958;2023-12-29T01:29:17;97332.75;;;18.66;37.84
78509;BME280;67802;50.846;7.958;2023-12-29T01:31:42;97337.19;;;18.65;37.87
78509;BME280;67802;50.846;7.958;2023-12-29T01:34:08;97329.28;;;18.65;38.11
78509;BME280;67802;50.846;7.958;2023-12-29T01:36:33;97326.66;;;18.65;37.99
78509;BME280;67802;50.846;7.958;2023-12-29T01:38:58;97332.75;;;18.66;38.12
78509;BME280;67802;50.846;7.958;2023-12-29T01:41:24;97324.03;;;18.65;37.79
78509;BME280;67802;50.846;7.958;2023-12-29T01:46:32;97332.75;;;18.66;37.82
78509;BME280;67802;50.846;7.958;2023-12-29T01:48:59;97337.03;;;18.67;37.97
78509;BME280;67802;50.846;7.958;2023-12-29T01:51:26;97323.88;;;18.67;38.03
78509;BME280;67802;50.846;7.958;2023-12-29T01:53:52;97321.16;;;18.68;37.93
78509;BME280;67802;50.846;7.958;2023-12-29T01:56:19;97322.94;;;18.68;37.95
78509;BME280;67802;50.846;7.958;2023-12-29T01:58:45;97323.78;;;18.68;37.77
78509;BME280;67802;50.846;7.958;2023-12-29T02:01:14;97320.28;;;18.68;37.94
78509;BME280;67802;50.846;7.958;2023-12-29T02:03:39;97316.69;;;18.69;37.86
78509;BME280;67802;50.846;7.958;2023-12-29T02:06:06;97316.84;;;18.67;37.80
78509;BME280;67802;50.846;7.958;2023-12-29T02:08:31;97321.97;;;18.69;37.99
78509;BME280;67802;50.846;7.958;2023-12-29T02:10:57;97317.66;;;18.68;37.84
78509;BME280;67802;50.846;7.958;2023-12-29T02:13:22;97313.38;;;18.67;37.80
78509;BME280;67802;50.846;7.958;2023-12-29T02:15:50;97316.00;;;18.67;37.83
78509;BME280;67802;50.846;7.958;2023-12-29T02:18:18;97310.88;;;18.65;37.94
78509;BME280;67802;50.846;7.958;2023-12-29T02:20:44;97310.03;;;18.65;38.03
78509;BME280;67802;50.846;7.958;2023-12-29T02:23:09;97311.97;;;18.63;37.89
78509;BME280;67802;50.846;7.958;2023-12-29T02:25:35;97312.09;;;18.61;37.83
78509;BME280;67802;50.846;7.958;2023-12-29T02:28:25;97321.06;;;18.59;37.84
78509;BME280;67802;50.846;7.958;2023-12-29T02:30:58;97324.66;;;18.58;37.98
78509;BME280;67802;50.846;7.958;2023-12-29T02:33:26;97310.81;;;18.56;37.95
78509;BME280;67802;50.846;7.958;2023-12-29T02:35:55;97304.88;;;18.53;37.97
78509;BME280;67802;50.846;7.958;2023-12-29T02:38:21;97306.09;;;18.49;38.05
78509;BME280;67802;50.846;7.958;2023-12-29T02:40:47;97286.97;;;18.47;38.09
78509;BME280;67802;50.846;7.958;2023-12-29T02:43:12;97285.41;;;18.45;38.21
78509;BME280;67802;50.846;7.958;2023-12-29T02:45:38;97289.16;;;18.42;38.17
78509;BME280;67802;50.846;7.958;2023-12-29T02:48:03;97267.25;;;18.42;37.98
78509;BME280;67802;50.846;7.958;2023-12-29T02:50:28;97268.94;;;18.43;37.83
78509;BME280;67802;50.846;7.958;2023-12-29T02:52:54;97279.34;;;18.44;38.14
78509;BME280;67802;50.846;7.958;2023-12-29T02:55:19;97263.41;;;18.46;38.14
78509;BME280;67802;50.846;7.958;2023-12-29T02:57:44;97269.28;;;18.49;37.84
78509;BME280;67802;50.846;7.958;2023-12-29T03:00:10;97267.19;;;18.53;37.87
78509;BME280;67802;50.846;7.958;2023-12-29T03:02:35;97260.00;;;18.55;37.77
78509;BME280;67802;50.846;7.958;2023-12-29T03:05:01;97256.28;;;18.58;37.91
78509;BME280;67802;50.846;7.958;2023-12-29T03:07:27;97267.38;;;18.61;37.91
78509;BME280;67802;50.846;7.958;2023-12-29T03:09:52;97261.00;;;18.64;37.85
78509;BME280;67802;50.846;7.958;2023-12-29T03:12:18;97259.09;;;18.66;37.47
78509;BME280;67802;50.846;7.958;2023-12-29T03:14:44;97260.63;;;18.68;37.64
78509;BME280;67802;50.846;7.958;2023-12-29T03:17:10;97257.75;;;18.72;37.40
78509;BME280;67802;50.846;7.958;2023-12-29T03:19:35;97261.06;;;18.74;37.77
78509;BME280;67802;50.846;7.958;2023-12-29T03:22:01;97253.88;;;18.76;37.50
78509;BME280;67802;50.846;7.958;2023-12-29T03:24:27;97254.59;;;18.78;37.62
78509;BME280;67802;50.846;7.958;2023-12-29T03:26:53;97249.19;;;18.79;37.58
78509;BME280;67802;50.846;7.958;2023-12-29T03:29:18;97254.31;;;18.81;37.60
78509;BME280;67802;50.846;7.958;2023-12-29T03:31:43;97237.53;;;18.82;37.52
78509;BME280;67802;50.846;7.958;2023-12-29T03:34:09;97242.69;;;18.83;37.58
78509;BME280;67802;50.846;7.958;2023-12-29T03:36:34;97241.72;;;18.84;37.44
78509;BME280;67802;50.846;7.958;2023-12-29T03:38:59;97237.28;;;18.85;37.49
78509;BME280;67802;50.846;7.958;2023-12-29T03:41:25;97247.00;;;18.84;37.49
78509;BME280;67802;50.846;7.958;2023-12-29T03:43:50;97232.88;;;18.86;37.43
78509;BME280;67802;50.846;7.958;2023-12-29T03:46:17;97228.56;;;18.84;37.37
78509;BME280;67802;50.846;7.958;2023-12-29T03:48:42;97231.19;;;18.84;37.38
78509;BME280;67802;50.846;7.958;2023-12-29T03:51:08;97225.94;;;18.84;37.35
78509;BME280;67802;50.846;7.958;2023-12-29T03:53:33;97228.41;;;18.86;37.46
78509;BME280;67802;50.846;7.958;2023-12-29T03:55:58;97229.28;;;18.87;37.37
78509;BME280;67802;50.846;7.958;2023-12-29T03:58:24;97221.22;;;18.88;37.47
78509;BME280;67802;50.846;7.958;2023-12-29T04:00:49;97213.47;;;18.87;37.44
78509;BME280;67802;50.846;7.958;2023-12-29T04:03:14;97212.50;;;18.88;37.43
78509;BME280;67802;50.846;7.958;2023-12-29T04:05:39;97209.19;;;18.86;37.46
78509;BME280;67802;50.846;7.958;2023-12-29T04:08:05;97208.22;;;18.87;37.43
78509;BME280;67802;50.846;7.958;2023-12-29T04:10:30;97213.47;;;18.87;37.34
78509;BME280;67802;50.846;7.958;2023-12-29T04:12:55;97217.06;;;18.86;37.56
78509;BME280;67802;50.846;7.958;2023-12-29T04:15:21;97218.75;;;18.87;37.51
78509;BME280;67802;50.846;7.958;2023-12-29T04:17:46;97218.75;;;18.87;37.37
78509;BME280;67802;50.846;7.958;2023-12-29T04:20:11;97223.03;;;18.88;37.35
78509;BME280;67802;50.846;7.958;2023-12-29T04:22:37;97211.56;;;18.89;37.50
78509;BME280;67802;50.846;7.958;2023-12-29T04:25:02;97219.44;;;18.89;37.43
78509;BME280;67802;50.846;7.958;2023-12-29T04:27:27;97217.63;;;18.89;37.34
78509;BME280;67802;50.846;7.958;2023-12-29T04:29:53;97227.34;;;18.89;37.42
78509;BME280;67802;50.846;7.958;2023-12-29T04:32:18;97223.03;;;18.88;37.59
78509;BME280;67802;50.846;7.958;2023-12-29T04:34:43;97229.00;;;18.90;37.26
78509;BME280;67802;50.846;7.958;2023-12-29T04:37:09;97222.06;;;18.89;37.33
78509;BME280;67802;50.846;7.958;2023-12-29T04:39:34;97219.44;;;18.89;37.31
78509;BME280;67802;50.846;7.958;2023-12-29T04:41:59;97224.72;;;18.89;37.36
78509;BME280;67802;50.846;7.958;2023-12-29T04:44:24;97216.81;;;18.89;37.03
78509;BME280;67802;50.846;7.958;2023-12-29T04:46:50;97217.63;;;18.89;37.34
78509;BME280;67802;50.846;7.958;2023-12-29T04:49:15;97222.88;;;18.89;37.38
78509;BME280;67802;50.846;7.958;2023-12-29T04:51:40;97228.31;;;18.88;37.39
78509;BME280;67802;50.846;7.958;2023-12-29T04:54:05;97227.34;;;18.89;37.42
78509;BME280;67802;50.846;7.958;2023-12-29T04:56:31;97218.75;;;18.87;37.50
78509;BME280;67802;50.846;7.958;2023-12-29T04:58:56;97217.78;;;18.88;37.55
78509;BME280;67802;50.846;7.958;2023-12-29T05:01:21;97211.81;;;18.86;37.44
78509;BME280;67802;50.846;7.958;2023-12-29T05:03:47;97214.56;;;18.84;37.35
78509;BME280;67802;50.846;7.958;2023-12-29T05:06:12;97214.56;;;18.84;37.54
78509;BME280;67802;50.846;7.958;2023-12-29T05:08:37;97213.03;;;18.81;37.44
78509;BME280;67802;50.846;7.958;2023-12-29T05:11:03;97212.34;;;18.79;37.44
78509;BME280;67802;50.846;7.958;2023-12-29T05:13:28;97223.84;;;18.78;37.57
78509;BME280;67802;50.846;7.958;2023-12-29T05:15:54;97226.47;;;18.78;37.53
78509;BME280;67802;50.846;7.958;2023-12-29T05:18:19;97213.47;;;18.77;37.46
78509;BME280;67802;50.846;7.958;2023-12-29T05:20:45;97217.88;;;18.76;37.55
78509;BME280;67802;50.846;7.958;2023-12-29T05:23:10;97221.47;;;18.75;37.55
78509;BME280;67802;50.846;7.958;2023-12-29T05:25:35;97218.13;;;18.73;37.56
78509;BME280;67802;50.846;7.958;2023-12-29T05:28:01;97226.88;;;18.74;37.58
78509;BME280;67802;50.846;7.958;2023-12-29T05:30:26;97226.19;;;18.72;37.58
78509;BME280;67802;50.846;7.958;2023-12-29T05:32:52;97214.94;;;18.69;37.46
78509;BME280;67802;50.846;7.958;2023-12-29T05:35:18;97221.28;;;18.67;37.69
78509;BME280;67802;50.846;7.958;2023-12-29T05:37:43;97235.28;;;18.67;37.69
78509;BME280;67802;50.846;7.958;2023-12-29T05:40:09;97228.38;;;18.66;37.68
78509;BME280;67802;50.846;7.958;2023-12-29T05:42:34;97230.16;;;18.66;37.62
78509;BME280;67802;50.846;7.958;2023-12-29T05:44:59;97232.78;;;18.66;37.53
78509;BME280;67802;50.846;7.958;2023-12-29T05:47:25;97239.72;;;18.67;37.64
78509;BME280;67802;50.846;7.958;2023-12-29T05:49:50;97248.56;;;18.66;37.77
78509;BME280;67802;50.846;7.958;2023-12-29T05:52:15;97249.41;;;18.66;37.78
78509;BME280;67802;50.846;7.958;2023-12-29T05:54:41;97249.25;;;18.68;37.68
78509;BME280;67802;50.846;7.958;2023-12-29T05:57:06;97259.09;;;18.66;37.74
78509;BME280;67802;50.846;7.958;2023-12-29T05:59:31;97266.00;;;18.67;37.53
78509;BME280;67802;50.846;7.958;2023-12-29T06:01:57;97263.38;;;18.67;37.76
78509;BME280;67802;50.846;7.958;2023-12-29T06:04:22;97268.66;;;18.67;37.69
78509;BME280;67802;50.846;7.958;2023-12-29T06:06:47;97274.63;;;18.69;37.63
78509;BME280;67802;50.846;7.958;2023-12-29T06:09:13;97263.28;;;18.68;37.48
78509;BME280;67802;50.846;7.958;2023-12-29T06:11:38;97281.69;;;18.68;37.64
78509;BME280;67802;50.846;7.958;2023-12-29T06:14:03;97272.25;;;18.66;37.86
78509;BME280;67802;50.846;7.958;2023-12-29T06:16:29;97269.59;;;18.66;37.72
78509;BME280;67802;50.846;7.958;2023-12-29T06:18:55;97267.94;;;18.65;37.60
78509;BME280;67802;50.846;7.958;2023-12-29T06:21:21;97280.84;;;18.68;37.61
78509;BME280;67802;50.846;7.958;2023-12-29T06:23:46;97280.84;;;18.68;37.63
78509;BME280;67802;50.846;7.958;2023-12-29T06:26:16;97287.66;;;18.71;37.47
78509;BME280;67802;50.846;7.958;2023-12-29T06:28:42;97288.47;;;18.71;37.71
78509;BME280;67802;50.846;7.958;2023-12-29T06:31:07;97284.88;;;18.72;37.61
78509;BME280;67802;50.846;7.958;2023-12-29T06:33:32;97282.94;;;18.74;37.59
78509;BME280;67802;50.846;7.958;2023-12-29T06:35:58;97268.00;;;18.75;37.65
78509;BME280;67802;50.846;7.958;2023-12-29T06:38:23;97266.09;;;18.77;37.40
78509;BME280;67802;50.846;7.958;2023-12-29T06:40:48;97261.63;;;18.77;37.49
78509;BME280;67802;50.846;7.958;2023-12-29T06:43:14;97270.22;;;18.79;37.50
78509;BME280;67802;50.846;7.958;2023-12-29T06:45:39;97270.13;;;18.81;37.61
78509;BME280;67802;50.846;7.958;2023-12-29T06:48:04;97273.41;;;18.83;37.36
78509;BME280;67802;50.846;7.958;2023-12-29T06:50:30;97273.31;;;18.84;37.34
78509;BME280;67802;50.846;7.958;2023-12-29T06:52:56;97268.03;;;18.84;37.34
78509;BME280;67802;50.846;7.958;2023-12-29T06:55:21;97268.84;;;18.85;37.44
78509;BME280;67802;50.846;7.958;2023-12-29T06:57:46;97266.22;;;18.85;37.33
78509;BME280;67802;50.846;7.958;2023-12-29T07:00:12;97269.72;;;18.86;37.54
78509;BME280;67802;50.846;7.958;2023-12-29T07:02:38;97259.19;;;18.86;37.40
78509;BME280;67802;50.846;7.958;2023-12-29T07:05:05;97266.09;;;18.87;37.50
78509;BME280;67802;50.846;7.958;2023-12-29T07:07:31;97263.47;;;18.87;37.49
78509;BME280;67802;50.846;7.958;2023-12-29T07:09:56;97262.50;;;18.88;37.47
78509;BME280;67802;50.846;7.958;2023-12-29T07:12:21;97254.72;;;18.86;37.41
78509;BME280;67802;50.846;7.958;2023-12-29T07:14:47;97262.78;;;18.84;37.55
78509;BME280;67802;50.846;7.958;2023-12-29T07:17:12;97259.19;;;18.86;37.65
78509;BME280;67802;50.846;7.958;2023-12-29T07:19:37;97259.19;;;18.86;37.41
78509;BME280;67802;50.846;7.958;2023-12-29T07:22:06;97264.44;;;18.86;37.41
78509;BME280;67802;50.846;7.958;2023-12-29T07:24:32;97262.63;;;18.86;37.52
78509;BME280;67802;50.846;7.958;2023-12-29T07:26:58;97269.72;;;18.86;37.40
78509;BME280;67802;50.846;7.958;2023-12-29T07:29:23;97263.59;;;18.85;37.53
78509;BME280;67802;50.846;7.958;2023-12-29T07:31:48;97257.50;;;18.84;37.53
78509;BME280;67802;50.846;7.958;2023-12-29T07:34:14;97262.78;;;18.84;37.63
78509;BME280;67802;50.846;7.958;2023-12-29T07:36:39;97265.41;;;18.84;37.50
78509;BME280;67802;50.846;7.958;2023-12-29T07:39:05;97269.72;;;18.86;37.41
78509;BME280;67802;50.846;7.958;2023-12-29T07:41:31;97265.41;;;18.84;37.41
78509;BME280;67802;50.846;7.958;2023-12-29T07:43:56;97261.81;;;18.86;37.27
78509;BME280;67802;50.846;7.958;2023-12-29T07:46:27;97258.34;;;18.85;37.53
78509;BME280;67802;50.846;7.958;2023-12-29T07:48:52;97262.78;;;18.84;37.61
78509;BME280;67802;50.846;7.958;2023-12-29T07:51:18;97259.19;;;18.86;37.37
78509;BME280;67802;50.846;7.958;2023-12-29T07:53:43;97243.50;;;18.84;37.69
78509;BME280;67802;50.846;7.958;2023-12-29T07:56:10;97251.41;;;18.84;37.52
78509;BME280;67802;50.846;7.958;2023-12-29T07:58:35;97244.34;;;18.84;37.45
78509;BME280;67802;50.846;7.958;2023-12-29T08:01:01;97245.31;;;18.83;37.41
78509;BME280;67802;50.846;7.958;2023-12-29T08:03:26;97250.59;;;18.83;37.57
78509;BME280;67802;50.846;7.958;2023-12-29T08:05:51;97259.44;;;18.82;37.45
78509;BME280;67802;50.846;7.958;2023-12-29T08:08:17;97256.97;;;18.81;37.38
78509;BME280;67802;50.846;7.958;2023-12-29T08:10:42;97261.38;;;18.80;37.44
78509;BME280;67802;50.846;7.958;2023-12-29T08:13:07;97255.28;;;18.80;37.45
78509;BME280;67802;50.846;7.958;2023-12-29T08:15:34;97259.72;;;18.79;37.44
78509;BME280;67802;50.846;7.958;2023-12-29T08:18:00;97249.31;;;18.78;37.59
78509;BME280;67802;50.846;7.958;2023-12-29T08:20:25;97254.59;;;18.78;37.66
78509;BME280;67802;50.846;7.958;2023-12-29T08:22:51;97247.66;;;18.77;37.62
78509;BME280;67802;50.846;7.958;2023-12-29T08:25:16;97244.34;;;18.75;37.68
78509;BME280;67802;50.846;7.958;2023-12-29T08:27:41;97243.47;;;18.74;37.73
78509;BME280;67802;50.846;7.958;2023-12-29T08:30:07;97237.50;;;18.72;37.58
78509;BME280;67802;50.846;7.958;2023-12-29T08:32:33;97244.59;;;18.72;37.61
78509;BME280;67802;50.846;7.958;2023-12-29T08:34:58;97230.59;;;18.71;37.94
78509;BME280;67802;50.846;7.958;2023-12-29T08:37:24;97222.00;;;18.69;37.77
78509;BME280;67802;50.846;7.958;2023-12-29T08:39:49;97229.88;;;18.69;37.69
78509;BME280;67802;50.846;7.958;2023-12-29T08:42:15;97236.97;;;18.68;37.70
78509;BME280;67802;50.846;7.958;2023-12-29T08:44:41;97229.19;;;18.67;37.65
78509;BME280;67802;50.846;7.958;2023-12-29T08:47:06;97234.44;;;18.67;37.60
78509;BME280;67802;50.846;7.958;2023-12-29T08:49:36;97224.06;;;18.65;37.53
78509;BME280;67802;50.846;7.958;2023-12-29T08:52:01;97220.59;;;18.65;37.79
78509;BME280;67802;50.846;7.958;2023-12-29T08:54:27;97234.59;;;18.65;37.62
78509;BME280;67802;50.846;7.958;2023-12-29T08:56:52;97223.22;;;18.65;37.79
78509;BME280;67802;50.846;7.958;2023-12-29T08:59:18;97215.31;;;18.65;37.88
78509;BME280;67802;50.846;7.958;2023-12-29T09:01:43;97225.84;;;18.65;37.62
78509;BME280;67802;50.846;7.958;2023-12-29T09:04:08;97222.25;;;18.66;37.82
78509;BME280;67802;50.846;7.958;2023-12-29T09:06:34;97223.91;;;18.67;37.61
78509;BME280;67802;50.846;7.958;2023-12-29T09:08:59;97226.69;;;18.65;37.86
78509;BME280;67802;50.846;7.958;2023-12-29T09:11:25;97218.66;;;18.67;37.54
78509;BME280;67802;50.846;7.958;2023-12-29T09:13:51;97218.66;;;18.67;37.80
78509;BME280;67802;50.846;7.958;2023-12-29T09:16:16;97216.03;;;18.67;37.45
78509;BME280;67802;50.846;7.958;2023-12-29T09:18:42;97215.06;;;18.68;37.48
78509;BME280;67802;50.846;7.958;2023-12-29T09:21:07;97216.03;;;18.67;37.76
78509;BME280;67802;50.846;7.958;2023-12-29T09:23:32;97211.47;;;18.69;37.62
78509;BME280;67802;50.846;7.958;2023-12-29T09:25:58;97219.25;;;18.71;37.77
78509;BME280;67802;50.846;7.958;2023-12-29T09:28:24;97222.69;;;18.71;37.50
78509;BME280;67802;50.846;7.958;2023-12-29T09:30:49;97227.97;;;18.71;37.49
78509;BME280;67802;50.846;7.958;2023-12-29T09:33:15;97230.31;;;18.74;37.72
78509;BME280;67802;50.846;7.958;2023-12-29T09:35:40;97237.41;;;18.74;37.66
78509;BME280;67802;50.846;7.958;2023-12-29T09:38:05;97248.63;;;18.76;37.55
78509;BME280;67802;50.846;7.958;2023-12-29T09:40:31;97240.59;;;18.77;37.57
78509;BME280;67802;50.846;7.958;2023-12-29T09:42:57;97242.25;;;18.78;37.72
78509;BME280;67802;50.846;7.958;2023-12-29T09:45:24;97249.19;;;18.79;37.60
78509;BME280;67802;50.846;7.958;2023-12-29T09:47:52;97256.97;;;18.81;37.63
78509;BME280;67802;50.846;7.958;2023-12-29T09:50:19;97251.56;;;18.82;37.95
78509;BME280;67802;50.846;7.958;2023-12-29T09:52:48;97247.81;;;18.85;38.11
78509;BME280;67802;50.846;7.958;2023-12-29T09:55:14;97243.13;;;18.89;38.13
78509;BME280;67802;50.846;7.958;2023-12-29T09:57:40;97245.75;;;18.89;38.28
78509;BME280;67802;50.846;7.958;2023-12-29T10:00:10;97224.56;;;18.90;37.97
78509;BME280;67802;50.846;7.958;2023-12-29T10:02:37;97243.81;;;18.91;37.95
78509;BME280;67802;50.846;7.958;2023-12-29T10:05:03;97248.13;;;18.92;37.89
78509;BME280;67802;50.846;7.958;2023-12-29T10:07:31;97253.38;;;18.92;38.00
78509;BME280;67802;50.846;7.958;2023-12-29T10:09:58;97247.16;;;18.93;38.18
78509;BME280;67802;50.846;7.958;2023-12-29T10:12:28;97255.06;;;18.93;37.86
78509;BME280;67802;50.846;7.958;2023-12-29T10:17:52;97259.47;;;18.92;37.80
78509;BME280;67802;50.846;7.958;2023-12-29T10:23:08;97266.41;;;18.93;38.01
78509;BME280;67802;50.846;7.958;2023-12-29T10:25:38;97270.84;;;18.93;37.86
78509;BME280;67802;50.846;7.958;2023-12-29T10:28:05;97270.84;;;18.93;37.80
78509;BME280;67802;50.846;7.958;2023-12-29T10:30:32;97262.09;;;18.92;37.92
78509;BME280;67802;50.846;7.958;2023-12-29T10:32:58;97270.97;;;18.91;37.77
78509;BME280;67802;50.846;7.958;2023-12-29T10:35:25;97269.19;;;18.92;37.88
78509;BME280;67802;50.846;7.958;2023-12-29T10:37:51;97266.53;;;18.92;37.78
78509;BME280;67802;50.846;7.958;2023-12-29T10:40:17;97266.53;;;18.92;37.98
78509;BME280;67802;50.846;7.958;2023-12-29T10:42:53;97260.31;;;18.93;37.81
78509;BME280;67802;50.846;7.958;2023-12-29T10:45:19;97270.16;;;18.91;37.97
78509;BME280;67802;50.846;7.958;2023-12-29T10:47:44;97263.06;;;18.91;37.88
78509;BME280;67802;50.846;7.958;2023-12-29T10:50:09;97266.53;;;18.92;37.95
78509;BME280;67802;50.846;7.958;2023-12-29T10:52:35;97274.44;;;18.92;37.84
78509;BME280;67802;50.846;7.958;2023-12-29T10:55:07;97262.25;;;18.91;37.81
78509;BME280;67802;50.846;7.958;2023-12-29T10:57:32;97256.97;;;18.91;37.95
78509;BME280;67802;50.846;7.958;2023-12-29T10:59:58;97261.41;;;18.90;37.81
78509;BME280;67802;50.846;7.958;2023-12-29T11:02:25;97266.81;;;18.89;37.91
78509;BME280;67802;50.846;7.958;2023-12-29T11:04:51;97267.63;;;18.89;37.97
78509;BME280;67802;50.846;7.958;2023-12-29T11:07:31;97265.00;;;18.89;37.84
78509;BME280;67802;50.846;7.958;2023-12-29T11:10:00;97267.63;;;18.89;37.84
78509;BME280;67802;50.846;7.958;2023-12-29T11:12:26;97258.91;;;18.89;37.78
78509;BME280;67802;50.846;7.958;2023-12-29T11:14:52;97252.00;;;18.88;37.90
78509;BME280;67802;50.846;7.958;2023-12-29T11:17:18;97254.72;;;18.86;37.84
78509;BME280;67802;50.846;7.958;2023-12-29T11:19:45;97257.50;;;18.84;37.82
78509;BME280;67802;50.846;7.958;2023-12-29T11:22:11;97262.78;;;18.84;37.81
78509;BME280;67802;50.846;7.958;2023-12-29T11:24:36;97264.72;;;18.82;38.02
78509;BME280;67802;50.846;7.958;2023-12-29T11:27:03;97242.00;;;18.81;37.78
78509;BME280;67802;50.846;7.958;2023-12-29T11:29:31;97251.69;;;18.81;38.03
78509;BME280;67802;50.846;7.958;2023-12-29T11:31:58;97260.56;;;18.80;37.93
78509;BME280;67802;50.846;7.958;2023-12-29T11:34:38;97265.94;;;18.78;38.01
78509;BME280;67802;50.846;7.958;2023-12-29T11:37:15;97251.13;;;18.77;38.10
78509;BME280;67802;50.846;7.958;2023-12-29T11:39:52;97250.28;;;18.77;37.97
78509;BME280;67802;50.846;7.958;2023-12-29T11:42:21;97248.63;;;18.76;37.95
78509;BME280;67802;50.846;7.958;2023-12-29T11:44:48;97232.97;;;18.74;38.00
78509;BME280;67802;50.846;7.958;2023-12-29T11:47:36;97241.00;;;18.73;37.96
78509;BME280;67802;50.846;7.958;2023-12-29T11:50:02;97240.16;;;18.72;38.00
78509;BME280;67802;50.846;7.958;2023-12-29T11:52:38;97238.47;;;18.71;37.97
78509;BME280;67802;50.846;7.958;2023-12-29T11:57:33;97216.72;;;18.69;37.92
78509;BME280;67802;50.846;7.958;2023-12-29T11:59:58;97220.31;;;18.68;37.88
78509;BME280;67802;50.846;7.958;2023-12-29T12:02:27;97224.78;;;18.67;37.93
78509;BME280;67802;50.846;7.958;2023-12-29T12:04:53;97220.59;;;18.65;38.10
78509;BME280;67802;50.846;7.958;2023-12-29T12:09:47;97221.56;;;18.64;38.14
78509;BME280;67802;50.846;7.958;2023-12-29T12:12:14;97199.81;;;18.62;37.91
78509;BME280;67802;50.846;7.958;2023-12-29T12:15:00;97210.34;;;18.62;38.15
78509;BME280;67802;50.846;7.958;2023-12-29T12:20:02;97216.56;;;18.61;37.99
78509;BME280;67802;50.846;7.958;2023-12-29T12:22:30;97222.78;;;18.60;38.07
78509;BME280;67802;50.846;7.958;2023-12-29T12:24:57;97209.78;;;18.58;38.05
78509;BME280;67802;50.846;7.958;2023-12-29T12:27:24;97213.38;;;18.57;38.16
78509;BME280;67802;50.846;7.958;2023-12-29T12:29:55;97212.53;;;18.57;38.27
78509;BME280;67802;50.846;7.958;2023-12-29T12:32:22;97210.84;;;18.56;38.03
78509;BME280;67802;50.846;7.958;2023-12-29T12:34:48;97205.59;;;18.56;38.21
78509;BME280;67802;50.846;7.958;2023-12-29T12:37:18;97196.06;;;18.54;38.14
78509;BME280;67802;50.846;7.958;2023-12-29T12:39:44;97187.19;;;18.56;37.92
78509;BME280;67802;50.846;7.958;2023-12-29T12:42:09;97185.66;;;18.53;38.16
78509;BME280;67802;50.846;7.958;2023-12-29T12:44:38;97193.44;;;18.54;38.14
78509;BME280;67802;50.846;7.958;2023-12-29T12:47:07;97182.06;;;18.54;38.13
78509;BME280;67802;50.846;7.958;2023-12-29T12:49:34;97180.28;;;18.54;38.15
78509;BME280;67802;50.846;7.958;2023-12-29T12:52:00;97171.53;;;18.54;38.10
78509;BME280;67802;50.846;7.958;2023-12-29T12:54:26;97178.63;;;18.53;38.10
78509;BME280;67802;50.846;7.958;2023-12-29T12:56:51;97167.13;;;18.54;38.19
78509;BME280;67802;50.846;7.958;2023-12-29T12:59:17;97175.84;;;18.55;38.19
78509;BME280;67802;50.846;7.958;2023-12-29T13:01:42;97175.84;;;18.55;38.30
78509;BME280;67802;50.846;7.958;2023-12-29T13:04:09;97174.03;;;18.56;38.16
78509;BME280;67802;50.846;7.958;2023-12-29T13:06:39;97169.63;;;18.56;38.00
78509;BME280;67802;50.846;7.958;2023-12-29T13:09:07;97170.44;;;18.57;38.13
78509;BME280;67802;50.846;7.958;2023-12-29T13:11:37;97172.09;;;18.58;38.02